Time;durP1;ratioP1;P1;durP2;ratioP2;P2;SDS_P1;SDS_P2;PMS_P1;PMS_P2;Temp;Humidity;BMP_temperature;BMP_pressure;BME280_temperature;BME280_humidity;BME280_pressure;Samples;Min_cycle;Max_cycle;Signal;HPM_P1;HPM_P2
2022/08/21 00:01:39;;;;;;;10.65;2.50;;;;;;;20.18;63.90;101746.94;6198946;22;20111;-56
2022/08/21 00:04:06;;;;;;;9.70;2.60;;;;;;;20.18;63.71;101754.00;6224531;22;20007;-55
2022/08/21 00:06:33;;;;;;;6.75;2.78;;;;;;;20.16;63.97;101751.38;6223315;22;20046;-55
2022/08/21 00:09:21;;;;;;;5.65;2.30;;;;;;;20.19;63.91;101750.44;6233188;22;20446;-53
2022/08/21 00:11:49;;;;;;;9.15;2.40;;;;;;;20.23;63.62;101747.75;6219680;22;20521;-55
2022/08/21 00:14:15;;;;;;;9.93;2.60;;;;;;;20.17;63.75;101749.59;6224683;22;20022;-55
2022/08/21 00:16:40;;;;;;;8.20;2.40;;;;;;;20.19;63.85;101750.44;6217110;22;20062;-58
2022/08/21 00:19:07;;;;;;;11.85;2.95;;;;;;;20.19;63.96;101745.16;6227146;22;20141;-54
2022/08/21 00:21:34;;;;;;;8.00;2.40;;;;;;;20.15;64.19;101736.38;6231979;22;20035;-56
2022/08/21 00:24:00;;;;;;;7.47;2.40;;;;;;;20.17;63.85;101733.72;6229598;22;20011;-56
2022/08/21 00:26:26;;;;;;;8.25;2.40;;;;;;;20.18;64.03;101738.13;6191409;22;20360;-56
2022/08/21 00:28:52;;;;;;;9.60;2.50;;;;;;;20.21;63.86;101735.41;6192155;22;20458;-56
2022/08/21 00:31:18;;;;;;;8.73;2.75;;;;;;;20.20;63.83;101736.31;6199299;22;20332;-56
2022/08/21 00:33:44;;;;;;;6.78;2.50;;;;;;;20.11;64.42;101739.97;6201863;22;20011;-56
2022/08/21 00:36:10;;;;;;;10.65;2.78;;;;;;;20.08;64.85;101740.00;6211872;22;20085;-55
2022/08/21 00:38:35;;;;;;;8.13;2.40;;;;;;;20.12;64.56;101741.72;6221647;22;20228;-55
2022/08/21 00:41:06;;;;;;;9.50;2.83;;;;;;;20.09;64.69;101735.56;6228262;22;20019;-54
2022/08/21 00:43:35;;;;;;;8.32;2.97;;;;;;;20.04;64.90;101735.63;6220026;22;20834;-55
2022/08/21 00:46:04;;;;;;;9.30;2.90;;;;;;;20.12;64.45;101736.44;6190922;22;20012;-54
2022/08/21 00:48:41;;;;;;;7.88;2.42;;;;;;;19.99;65.04;101733.94;6234145;22;20035;-56
2022/08/21 00:51:35;;;;;;;6.82;2.60;;;;;;;20.05;64.62;101740.03;6195140;22;20014;-55
2022/08/21 00:54:05;;;;;;;9.88;2.70;;;;;;;20.08;64.58;101734.69;6221478;22;20375;-55
2022/08/21 00:56:36;;;;;;;7.28;2.50;;;;;;;20.06;64.43;101725.91;6201106;22;21275;-56
2022/08/21 00:59:03;;;;;;;7.47;2.80;;;;;;;20.00;64.71;101731.28;6226636;22;20349;-55
2022/08/21 01:01:28;;;;;;;7.40;2.70;;;;;;;20.05;64.17;101731.22;6223744;22;20037;-56
2022/08/21 01:03:54;;;;;;;7.30;2.70;;;;;;;20.00;64.58;101727.75;6189649;22;20012;-56
2022/08/21 01:06:19;;;;;;;6.60;2.70;;;;;;;20.00;64.57;101731.28;6215626;22;20373;-55
2022/08/21 01:08:46;;;;;;;12.13;2.65;;;;;;;19.98;64.44;101734.81;6225317;22;20487;-55
2022/08/21 01:11:12;;;;;;;7.07;2.65;;;;;;;19.91;64.85;101720.78;6225590;22;20007;-56
2022/08/21 01:13:44;;;;;;;8.50;2.75;;;;;;;19.97;64.52;101723.38;6202083;22;20439;-54
2022/08/21 01:16:10;;;;;;;10.02;2.58;;;;;;;19.87;64.77;101720.84;6211339;22;20018;-57
2022/08/21 01:18:36;;;;;;;9.68;2.53;;;;;;;19.91;64.53;101722.56;6197529;22;20044;-53
2022/08/21 01:21:03;;;;;;;6.90;2.63;;;;;;;19.88;64.46;101725.25;6200615;22;20070;-54
2022/08/21 01:23:29;;;;;;;6.85;2.60;;;;;;;19.90;64.57;101723.44;6215103;22;20014;-55
2022/08/21 01:25:55;;;;;;;9.80;2.67;;;;;;;19.87;64.48;101720.84;6205925;22;20375;-55
2022/08/21 01:28:22;;;;;;;7.00;2.53;;;;;;;19.87;64.30;101727.03;6208851;22;20385;-56
2022/08/21 01:30:50;;;;;;;9.60;2.80;;;;;;;19.84;64.36;101725.28;6229245;22;20074;-55
2022/08/21 01:33:18;;;;;;;9.02;2.65;;;;;;;19.78;64.59;101725.34;6208364;22;20065;-55
2022/08/21 01:35:43;;;;;;;6.65;2.35;;;;;;;19.86;64.10;101719.97;6202453;22;20019;-54
2022/08/21 01:38:09;;;;;;;6.88;2.58;;;;;;;19.80;64.12;101731.50;6188178;22;20003;-55
2022/08/21 01:40:34;;;;;;;7.75;2.50;;;;;;;19.78;64.03;101722.69;6228568;22;20604;-53
2022/08/21 01:43:00;;;;;;;5.85;2.30;;;;;;;19.77;64.07;101718.28;6226875;22;20078;-56
2022/08/21 01:45:25;;;;;;;7.22;2.38;;;;;;;19.77;63.71;101723.59;6222792;22;20046;-56
2022/08/21 01:47:52;;;;;;;9.00;2.38;;;;;;;19.75;63.86;101721.88;6201769;22;20688;-56
2022/08/21 01:50:20;;;;;;;10.00;2.67;;;;;;;19.73;63.77;101713.94;6209417;22;20304;-54
2022/08/21 01:52:46;;;;;;;6.40;2.63;;;;;;;19.72;63.86;101714.81;6217090;22;20015;-53
2022/08/21 01:55:12;;;;;;;7.32;2.45;;;;;;;19.65;63.78;101713.13;6208086;22;20806;-54
2022/08/21 01:57:38;;;;;;;10.75;2.63;;;;;;;19.73;63.31;101705.13;6225599;22;20007;-55
2022/08/21 02:00:11;;;;;;;5.72;2.30;;;;;;;19.83;63.21;101707.63;6222310;22;20430;-54
2022/08/21 02:02:37;;;;;;;7.50;2.47;;;;;;;19.80;63.52;101702.41;6227663;22;20011;-54
2022/08/21 02:05:16;;;;;;;9.57;2.58;;;;;;;19.78;63.17;101703.28;6201108;22;20003;-55
2022/08/21 02:07:48;;;;;;;8.40;2.70;;;;;;;19.76;63.43;101698.00;6220383;22;20012;-55
2022/08/21 02:10:20;;;;;;;8.57;2.30;;;;;;;19.57;64.25;101688.56;6226031;22;20035;-55
2022/08/21 02:12:46;;;;;;;7.03;2.20;;;;;;;19.67;63.77;101699.91;6226839;22;20018;-55
2022/08/21 02:15:12;;;;;;;10.20;2.40;;;;;;;19.67;63.78;101699.91;6184924;22;20434;-55
2022/08/21 02:17:42;;;;;;;8.45;2.40;;;;;;;19.58;64.00;101698.22;6227772;22;20010;-54
2022/08/21 02:20:27;;;;;;;8.63;2.50;;;;;;;19.54;64.03;101696.50;6185298;22;20093;-55
2022/08/21 02:22:53;;;;;;;9.80;2.50;;;;;;;19.53;64.21;101699.16;6220869;22;20007;-55
2022/08/21 02:25:21;;;;;;;6.72;2.15;;;;;;;19.56;63.99;101691.22;6200447;22;20711;-55
2022/08/21 02:27:51;;;;;;;8.30;2.40;;;;;;;19.54;63.95;101685.94;6221083;22;20392;-55
2022/08/21 02:30:34;;;;;;;8.13;2.38;;;;;;;19.52;64.33;101700.06;6195200;22;20026;-57
2022/08/21 02:32:59;;;;;;;6.60;2.22;;;;;;;19.50;64.18;101700.09;6231546;22;20371;-55
2022/08/21 02:35:31;;;;;;;8.25;2.50;;;;;;;19.42;64.75;101699.25;6194173;22;20008;-54
2022/08/21 02:38:05;;;;;;;6.85;2.20;;;;;;;19.40;64.71;101695.72;6226409;22;20534;-55
2022/08/21 02:40:34;;;;;;;9.32;2.50;;;;;;;19.49;64.75;101694.81;6230681;22;20090;-56
2022/08/21 02:43:01;;;;;;;12.02;3.08;;;;;;;19.46;64.63;101692.22;6187695;22;20435;-55
2022/08/21 02:45:30;;;;;;;8.80;3.10;;;;;;;19.54;64.33;101695.63;6221031;22;20015;-55
2022/08/21 02:48:05;;;;;;;5.78;2.17;;;;;;;19.52;64.14;101695.63;6234759;22;20169;-55
2022/08/21 02:50:35;;;;;;;9.23;3.00;;;;;;;19.39;64.91;101686.91;6223926;22;20019;-56
2022/08/21 02:53:02;;;;;;;9.07;3.10;;;;;;;19.39;64.83;101688.72;6228217;22;20004;-54
2022/08/21 02:55:37;;;;;;;10.02;3.10;;;;;;;19.38;64.77;101681.66;6219862;22;20027;-55
2022/08/21 02:58:06;;;;;;;9.00;3.53;;;;;;;19.38;64.79;101692.25;6190329;22;20018;-55
2022/08/21 03:00:35;;;;;;;9.18;3.55;;;;;;;19.37;64.71;101693.13;6225092;22;20016;-56
2022/08/21 03:03:10;;;;;;;12.65;3.78;;;;;;;19.33;65.03;101689.63;6180848;22;20015;-55
2022/08/21 03:05:39;;;;;;;11.43;4.55;;;;;;;19.29;65.31;101684.38;6220317;22;20281;-55
2022/08/21 03:08:21;;;;;;;10.98;4.60;;;;;;;19.24;65.41;101679.16;6215868;22;20129;-57
2022/08/21 03:10:56;;;;;;;10.10;4.75;;;;;;;19.29;65.29;101681.75;6220940;22;20602;-56
2022/08/21 03:13:22;;;;;;;12.40;4.30;;;;;;;19.31;65.20;101680.84;6196847;22;20378;-55
2022/08/21 03:15:52;;;;;;;14.90;5.20;;;;;;;19.31;65.13;101675.56;6198271;22;20012;-55
2022/08/21 03:18:35;;;;;;;12.35;4.53;;;;;;;19.32;65.40;101674.66;6219772;22;20004;-56
2022/08/21 03:21:05;;;;;;;15.52;5.10;;;;;;;19.19;65.73;101670.38;6206984;22;20095;-54
2022/08/21 03:23:51;;;;;;;13.32;4.90;;;;;;;19.25;65.53;101669.44;6226576;22;20003;-53
2022/08/21 03:26:24;;;;;;;15.50;5.18;;;;;;;19.28;65.47;101665.00;6208424;22;20078;-55
2022/08/21 03:28:50;;;;;;;16.70;6.40;;;;;;;19.30;65.22;101672.91;6189718;22;20646;-54
2022/08/21 03:31:16;;;;;;;15.05;6.18;;;;;;;19.33;65.25;101671.09;6225332;22;20077;-56
2022/08/21 03:33:41;;;;;;;15.32;6.43;;;;;;;19.26;65.30;101664.16;6221342;22;20008;-55
2022/08/21 03:36:08;;;;;;;17.13;7.18;;;;;;;19.25;65.69;101664.16;6217914;22;20018;-54
2022/08/21 03:38:40;;;;;;;22.45;7.95;;;;;;;19.19;65.78;101667.75;6210495;22;20034;-55
2022/08/21 03:41:07;;;;;;;20.70;7.70;;;;;;;19.17;66.04;101655.41;6237489;22;20065;-55
2022/08/21 03:43:41;;;;;;;21.33;8.00;;;;;;;19.16;65.71;101654.53;6228091;22;20040;-56
2022/08/21 03:46:06;;;;;;;18.35;7.65;;;;;;;19.10;65.83;101654.59;6172916;22;20015;-55
2022/08/21 03:48:35;;;;;;;21.23;7.82;;;;;;;19.18;65.84;101654.53;6228428;22;20787;-54
2022/08/21 03:51:00;;;;;;;21.50;7.85;;;;;;;19.23;65.59;101655.34;6217938;22;20089;-55
2022/08/21 03:53:26;;;;;;;16.13;6.88;;;;;;;19.23;65.46;101664.16;6225109;22;20380;-55
2022/08/21 03:55:53;;;;;;;19.05;7.13;;;;;;;19.16;65.66;101654.53;6225726;22;20042;-55
2022/08/21 03:58:22;;;;;;;17.80;6.35;;;;;;;19.13;66.02;101657.22;6212544;22;20016;-56
2022/08/21 04:00:51;;;;;;;17.25;6.40;;;;;;;19.14;65.90;101659.00;6224981;22;20008;-57
2022/08/21 04:03:17;;;;;;;18.73;6.68;;;;;;;19.14;65.84;101651.06;6197552;22;20094;-56
2022/08/21 04:05:45;;;;;;;19.88;6.43;;;;;;;19.11;65.93;101660.75;6227538;22;20359;-56
2022/08/21 04:08:11;;;;;;;19.50;6.75;;;;;;;19.10;66.03;101651.94;6227076;22;20015;-55
2022/08/21 04:10:39;;;;;;;17.98;6.28;;;;;;;19.07;66.21;101654.66;6193497;22;20020;-55
2022/08/21 04:13:06;;;;;;;17.98;6.88;;;;;;;19.10;66.12;101659.00;6235340;22;20016;-55
2022/08/21 04:15:42;;;;;;;16.58;6.93;;;;;;;19.07;66.29;101661.69;6221553;22;20806;-53
2022/08/21 04:18:17;;;;;;;21.02;7.75;;;;;;;19.04;66.54;101659.94;6220521;22;20095;-54
2022/08/21 04:20:44;;;;;;;19.88;7.47;;;;;;;18.99;66.76;101653.81;6181347;22;20011;-55
2022/08/21 04:23:10;;;;;;;19.48;7.28;;;;;;;19.02;66.63;101670.56;6196157;22;20348;-57
2022/08/21 04:25:35;;;;;;;17.88;6.93;;;;;;;19.05;66.44;101669.63;6230931;22;20000;-55
2022/08/21 04:28:03;;;;;;;19.92;6.35;;;;;;;18.96;66.80;101662.66;6222113;22;20008;-55
2022/08/21 04:30:29;;;;;;;19.23;6.03;;;;;;;19.00;66.71;101669.69;6202209;22;20045;-56
2022/08/21 04:32:57;;;;;;;14.63;5.25;;;;;;;19.05;66.61;101674.91;6221932;22;20106;-55
2022/08/21 04:35:24;;;;;;;11.82;5.20;;;;;;;18.91;66.93;101677.66;6230892;22;20756;-55
2022/08/21 04:37:50;;;;;;;13.80;4.97;;;;;;;18.84;67.39;101681.28;6204014;22;20400;-54
2022/08/21 04:40:17;;;;;;;12.00;4.40;;;;;;;18.86;67.30;101679.47;6214825;22;20503;-55
2022/08/21 04:42:53;;;;;;;12.25;4.38;;;;;;;18.84;67.69;101683.03;6222488;22;20673;-54
2022/08/21 04:45:52;;;;;;;13.57;4.30;;;;;;;18.96;67.01;101682.94;6175878;22;20102;-54
2022/08/21 04:48:20;;;;;;;11.27;3.80;;;;;;;19.05;66.86;101681.06;6194815;22;20019;-54
2022/08/21 04:50:57;;;;;;;8.95;3.65;;;;;;;19.12;66.72;101688.94;6198506;22;20015;-55
2022/08/21 04:54:03;;;;;;;9.05;3.47;;;;;;;19.03;67.33;101690.78;6228094;22;20384;-53
2022/08/21 04:56:39;;;;;;;10.70;3.33;;;;;;;19.10;67.04;101693.38;6174846;22;20121;-54
2022/08/21 04:59:13;;;;;;;9.38;3.08;;;;;;;19.08;67.23;101703.97;6205683;22;20102;-55
2022/08/21 05:01:40;;;;;;;8.07;3.45;;;;;;;19.15;66.94;101694.22;6201331;22;20012;-56
2022/08/21 05:04:10;;;;;;;10.23;3.38;;;;;;;19.20;66.99;101698.59;6212512;22;20087;-57
2022/08/21 05:06:40;;;;;;;10.32;3.17;;;;;;;19.25;66.87;101695.88;6227120;22;20030;-56
2022/08/21 05:09:09;;;;;;;9.43;3.58;;;;;;;19.22;67.30;101688.84;6193439;22;20007;-55
2022/08/21 05:11:35;;;;;;;14.80;3.60;;;;;;;19.18;67.47;101689.78;6198708;22;20011;-54
2022/08/21 05:14:00;;;;;;;11.50;3.53;;;;;;;19.38;66.73;101689.59;6204130;22;20110;-53
2022/08/21 05:16:27;;;;;;;11.93;3.70;;;;;;;19.36;66.56;101691.38;6217910;22;20075;-54
2022/08/21 05:18:52;;;;;;;9.02;3.83;;;;;;;19.33;67.00;101692.25;6224022;22;20493;-55
2022/08/21 05:21:18;;;;;;;11.60;4.28;;;;;;;19.29;67.03;101692.31;6224658;22;20051;-55
2022/08/21 05:23:43;;;;;;;11.70;4.15;;;;;;;19.39;66.74;101694.00;6204798;22;20011;-56
2022/08/21 05:26:09;;;;;;;14.68;4.00;;;;;;;19.30;67.43;101694.06;6210955;22;20477;-56
2022/08/21 05:28:34;;;;;;;11.07;4.47;;;;;;;19.31;67.57;101695.81;6196271;22;20607;-56
2022/08/21 05:31:00;;;;;;;10.57;4.43;;;;;;;19.21;67.84;101694.16;6222088;22;20004;-55
2022/08/21 05:33:25;;;;;;;14.18;4.10;;;;;;;19.50;67.23;101689.50;6217697;22;20020;-54
2022/08/21 05:35:55;;;;;;;9.50;4.18;;;;;;;19.71;66.40;101693.66;6197318;22;20201;-53
2022/08/21 05:38:21;;;;;;;12.57;4.50;;;;;;;19.86;65.79;101696.16;6213489;22;20050;-55
2022/08/21 05:40:46;;;;;;;10.82;4.20;;;;;;;19.84;66.06;101687.34;6208306;22;20535;-54
2022/08/21 05:43:13;;;;;;;12.43;4.30;;;;;;;19.92;65.67;101692.56;6214784;22;20440;-53
2022/08/21 05:45:39;;;;;;;9.52;3.97;;;;;;;20.05;65.15;101687.09;6224605;22;20016;-55
2022/08/21 05:48:08;;;;;;;12.55;4.30;;;;;;;19.91;65.66;101691.69;6190789;22;20533;-55
2022/08/21 05:50:35;;;;;;;11.30;3.90;;;;;;;19.98;66.03;101685.41;6190333;22;20523;-54
2022/08/21 05:53:01;;;;;;;14.35;4.10;;;;;;;20.15;65.11;101680.78;6224597;22;20472;-55
2022/08/21 05:55:26;;;;;;;11.32;3.80;;;;;;;20.21;65.11;101683.34;6228842;22;21019;-55
2022/08/21 05:57:52;;;;;;;10.82;3.83;;;;;;;20.29;64.75;101682.38;6202572;22;20118;-54
2022/08/21 06:00:18;;;;;;;14.27;4.07;;;;;;;20.46;64.37;101686.56;6225792;22;20566;-56
2022/08/21 06:02:44;;;;;;;12.50;4.45;;;;;;;20.38;64.60;101685.78;6229976;22;20077;-56
2022/08/21 06:05:09;;;;;;;9.70;3.70;;;;;;;20.47;64.39;101688.31;6227771;22;20008;-54
2022/08/21 06:07:34;;;;;;;11.05;3.60;;;;;;;20.53;64.44;101696.19;6231988;22;20008;-53
2022/08/21 06:10:00;;;;;;;13.18;3.78;;;;;;;20.62;64.03;101697.78;6221764;22;20102;-56
2022/08/21 06:12:28;;;;;;;11.80;3.90;;;;;;;20.79;63.79;101700.22;6201626;22;20035;-54
2022/08/21 06:14:54;;;;;;;13.13;3.60;;;;;;;20.74;64.06;101700.25;6225251;22;20018;-54
2022/08/21 06:17:19;;;;;;;8.43;3.50;;;;;;;20.87;63.89;101693.00;6216794;22;20086;-55
2022/08/21 06:19:48;;;;;;;10.13;3.85;;;;;;;20.89;63.98;101693.84;6203400;22;20095;-54
2022/08/21 06:22:16;;;;;;;10.25;3.85;;;;;;;20.94;64.03;101684.03;6218282;22;20023;-54
2022/08/21 06:24:42;;;;;;;10.25;3.75;;;;;;;21.05;63.56;101682.97;6213768;22;20015;-53
2022/08/21 06:27:07;;;;;;;9.60;3.60;;;;;;;21.21;63.58;101680.97;6229661;22;20057;-54
2022/08/21 06:29:34;;;;;;;11.68;3.80;;;;;;;21.66;62.72;101686.31;6219488;22;20438;-57
2022/08/21 06:31:59;;;;;;;12.55;3.65;;;;;;;22.29;61.01;101678.84;6221542;22;20022;-54
2022/08/21 06:34:25;;;;;;;11.10;3.80;;;;;;;23.41;57.29;101685.84;6225869;22;20411;-57
2022/08/21 06:37:08;;;;;;;14.68;4.28;;;;;;;24.56;53.79;101682.50;6218706;22;20222;-55
2022/08/21 06:39:35;;;;;;;13.73;4.07;;;;;;;25.03;51.84;101682.78;6218841;22;20329;-53
2022/08/21 06:42:07;;;;;;;9.52;3.67;;;;;;;26.03;49.43;101681.00;6208192;22;20828;-56
2022/08/21 06:44:32;;;;;;;8.75;3.63;;;;;;;27.26;46.75;101679.56;6220475;22;20666;-54
2022/08/21 06:46:59;;;;;;;10.27;3.30;;;;;;;27.97;45.62;101683.53;6225563;22;20004;-55
2022/08/21 06:49:25;;;;;;;11.80;3.67;;;;;;;28.24;43.28;101687.63;6228188;22;20390;-57
2022/08/21 06:51:50;;;;;;;11.73;3.63;;;;;;;27.82;44.92;101686.91;6217105;22;20078;-54
2022/08/21 06:54:16;;;;;;;10.48;3.35;;;;;;;28.10;44.43;101675.81;6214164;22;20092;-55
2022/08/21 06:56:42;;;;;;;13.40;3.72;;;;;;;27.34;45.38;101684.56;6226844;22;20083;-55
2022/08/21 06:59:13;;;;;;;11.93;3.15;;;;;;;27.55;45.78;101674.78;6229374;22;20725;-52
2022/08/21 07:01:40;;;;;;;14.20;3.72;;;;;;;28.16;44.75;101675.56;6221946;22;20051;-55
2022/08/21 07:04:05;;;;;;;12.85;3.45;;;;;;;28.86;43.04;101667.63;6224127;22;20485;-55
2022/08/21 07:06:31;;;;;;;11.80;3.30;;;;;;;28.67;43.92;101674.00;6224171;22;20016;-55
2022/08/21 07:08:56;;;;;;;13.35;3.70;;;;;;;28.43;43.88;101673.34;6200173;22;20020;-56
2022/08/21 07:11:24;;;;;;;11.73;3.55;;;;;;;27.92;45.01;101676.66;6225926;22;20414;-54
2022/08/21 07:13:52;;;;;;;10.90;3.35;;;;;;;27.73;45.08;101679.31;6225337;22;20019;-56
2022/08/21 07:16:17;;;;;;;13.77;3.35;;;;;;;26.56;48.28;101684.28;6196433;22;20537;-54
2022/08/21 07:18:43;;;;;;;9.77;3.20;;;;;;;27.40;46.60;101687.84;6199843;22;20102;-55
2022/08/21 07:21:11;;;;;;;11.82;3.60;;;;;;;28.19;44.61;101680.75;6221581;22;20019;-57
2022/08/21 07:23:42;;;;;;;14.55;3.88;;;;;;;27.77;45.65;101692.50;6227878;22;20478;-56
2022/08/21 07:26:11;;;;;;;14.70;4.07;;;;;;;26.48;47.99;101689.03;6220538;22;20016;-57
2022/08/21 07:28:36;;;;;;;11.27;3.80;;;;;;;26.55;49.43;101691.41;6206470;22;20105;-55
2022/08/21 07:31:03;;;;;;;11.70;3.63;;;;;;;27.24;47.39;101683.25;6228679;22;20011;-56
2022/08/21 07:33:31;;;;;;;10.55;3.92;;;;;;;27.24;47.50;101686.78;6221523;22;20204;-56
2022/08/21 07:35:56;;;;;;;13.23;4.10;;;;;;;26.85;48.13;101685.75;6232811;22;20014;-55
2022/08/21 07:38:27;;;;;;;10.88;3.78;;;;;;;26.77;48.81;101683.41;6211502;22;20139;-56
2022/08/21 07:40:56;;;;;;;10.02;3.70;;;;;;;27.75;46.02;101683.63;6235718;22;20475;-55
2022/08/21 07:43:21;;;;;;;12.40;3.20;;;;;;;28.88;44.33;101686.38;6219908;22;20016;-56
2022/08/21 07:45:49;;;;;;;11.68;3.40;;;;;;;29.93;41.79;101681.78;6221754;22;20530;-56
2022/08/21 07:48:15;;;;;;;9.48;3.08;;;;;;;29.83;42.03;101685.84;6219539;22;20079;-55
2022/08/21 07:50:42;;;;;;;8.75;3.13;;;;;;;30.97;40.13;101683.00;6229263;22;20088;-57
2022/08/21 07:53:07;;;;;;;11.38;3.00;;;;;;;31.17;38.75;101679.13;6226627;22;20435;-55
2022/08/21 07:55:33;;;;;;;11.40;2.92;;;;;;;31.60;38.15;101677.41;6227800;22;20030;-55
2022/08/21 07:57:59;;;;;;;11.68;2.85;;;;;;;30.19;40.31;101677.66;6229851;22;20372;-54
2022/08/21 08:00:27;;;;;;;11.85;2.92;;;;;;;30.03;40.54;101676.75;6182543;22;20449;-57
2022/08/21 08:02:53;;;;;;;11.98;3.20;;;;;;;28.50;43.66;101677.47;6226167;22;20004;-55
2022/08/21 08:05:21;;;;;;;12.07;2.83;;;;;;;28.76;44.26;101682.47;6229969;22;20382;-54
2022/08/21 08:07:47;;;;;;;9.95;2.65;;;;;;;29.47;44.14;101687.81;6201754;22;20018;-54
2022/08/21 08:10:15;;;;;;;11.30;2.92;;;;;;;29.44;43.08;101689.75;6218834;22;20255;-56
2022/08/21 08:12:42;;;;;;;9.45;2.67;;;;;;;29.06;43.99;101690.81;6191990;22;20015;-58
2022/08/21 08:15:13;;;;;;;11.23;3.08;;;;;;;28.86;44.35;101681.06;6208657;22;20410;-56
2022/08/21 08:17:38;;;;;;;10.18;2.80;;;;;;;28.79;43.45;101676.94;6197547;22;20641;-57
2022/08/21 08:20:12;;;;;;;10.77;2.60;;;;;;;28.33;44.47;101677.44;6229819;22;20087;-57
2022/08/21 08:22:39;;;;;;;8.80;2.50;;;;;;;28.02;46.25;101664.56;6218701;22;20103;-57
2022/08/21 08:25:07;;;;;;;8.35;2.45;;;;;;;28.53;45.75;101672.84;6228294;22;20003;-57
2022/08/21 08:27:33;;;;;;;10.23;2.88;;;;;;;28.77;45.19;101676.16;6224862;22;20098;-58
2022/08/21 08:29:58;;;;;;;9.68;2.85;;;;;;;28.55;44.49;101667.38;6223783;22;20090;-58
2022/08/21 08:32:24;;;;;;;10.90;2.90;;;;;;;27.40;46.23;101681.63;6221228;22;20095;-58
2022/08/21 08:34:51;;;;;;;9.90;2.50;;;;;;;27.35;47.12;101675.59;6224000;22;20432;-58
2022/08/21 08:37:18;;;;;;;8.15;2.88;;;;;;;27.77;46.77;101668.38;6224413;22;20099;-57
2022/08/21 08:39:44;;;;;;;10.00;2.65;;;;;;;27.96;45.59;101676.44;6206053;22;20083;-57
2022/08/21 08:42:15;;;;;;;11.38;2.65;;;;;;;27.96;44.71;101660.34;6225696;22;20514;-57
2022/08/21 08:44:44;;;;;;;11.82;3.28;;;;;;;27.47;46.83;101672.41;6196727;22;20018;-56
2022/08/21 08:47:18;;;;;;;10.80;2.90;;;;;;;27.20;46.42;101660.22;6229685;22;20014;-58
2022/08/21 08:50:15;;;;;;;13.60;3.15;;;;;;;27.31;46.98;101661.50;6215147;22;20057;-56
2022/08/21 08:53:04;;;;;;;9.18;2.90;;;;;;;26.91;47.65;101662.31;6218020;22;20510;-57
2022/08/21 08:55:37;;;;;;;9.18;2.40;;;;;;;26.32;48.41;101670.06;6220733;22;20504;-58
2022/08/21 08:58:05;;;;;;;9.68;2.50;;;;;;;25.89;49.38;101664.59;6220083;22;20141;-57
2022/08/21 09:00:31;;;;;;;9.43;2.40;;;;;;;25.69;50.56;101670.69;6213177;22;20019;-58
2022/08/21 09:02:59;;;;;;;7.18;2.20;;;;;;;25.48;50.45;101674.09;6231842;22;20015;-58
2022/08/21 09:06:06;;;;;;;11.70;2.55;;;;;;;25.39;51.81;101685.97;6197449;22;20020;-58
2022/08/21 09:09:14;;;;;;;6.93;2.15;;;;;;;25.29;50.98;101681.88;6187250;22;20023;-54
2022/08/21 09:12:12;;;;;;;7.63;2.10;;;;;;;25.38;49.23;101682.44;6207952;22;20526;-56
2022/08/21 09:15:01;;;;;;;7.00;2.20;;;;;;;25.33;50.86;101672.84;6198105;22;20449;-55
2022/08/21 09:17:57;;;;;;;8.00;2.10;;;;;;;25.48;49.72;101672.31;6212677;22;20663;-56
2022/08/21 09:20:38;;;;;;;9.10;1.98;;;;;;;25.61;51.66;101679.00;6213012;22;20007;-56
2022/08/21 09:23:55;;;;;;;5.88;1.98;;;;;;;25.80;48.07;101684.50;6147147;23;20728;-56
2022/08/21 09:26:34;;;;;;;6.40;1.80;;;;;;;25.90;48.23;101680.59;6216127;22;20011;-57
2022/08/21 09:29:05;;;;;;;6.50;2.13;;;;;;;26.15;46.40;101680.53;6219718;22;20012;-56
2022/08/21 09:31:36;;;;;;;10.55;1.92;;;;;;;26.14;46.60;101687.66;6189391;22;20015;-55
2022/08/21 09:34:26;;;;;;;8.45;1.92;;;;;;;26.11;47.30;101690.44;6222538;22;20004;-58
2022/08/21 09:36:55;;;;;;;7.10;1.98;;;;;;;25.93;46.89;101684.91;6223873;22;20097;-59
2022/08/21 09:39:37;;;;;;;6.25;1.90;;;;;;;26.08;46.25;101685.22;6192915;22;20010;-55
2022/08/21 09:42:09;;;;;;;7.20;1.90;;;;;;;26.59;45.98;101685.00;6218157;22;20102;-55
2022/08/21 09:44:40;;;;;;;7.53;1.95;;;;;;;26.83;45.27;101682.28;6218947;22;20346;-56
2022/08/21 09:47:07;;;;;;;9.02;2.13;;;;;;;27.10;44.39;101685.63;6198113;22;20022;-54
2022/08/21 09:49:39;;;;;;;8.55;1.85;;;;;;;27.25;43.64;101685.00;6231993;22;20039;-54
2022/08/21 09:52:21;;;;;;;7.80;1.90;;;;;;;27.03;45.10;101679.66;6197067;22;20066;-55
2022/08/21 09:54:51;;;;;;;7.75;1.75;;;;;;;26.84;44.95;101682.19;6198918;22;20177;-59
2022/08/21 09:57:39;;;;;;;6.30;1.90;;;;;;;26.67;45.40;101684.72;6196817;22;20364;-55
2022/08/21 10:00:19;;;;;;;9.25;2.22;;;;;;;26.52;46.14;101680.88;6184631;23;20054;-54
2022/08/21 10:02:45;;;;;;;7.18;1.95;;;;;;;26.36;46.38;101682.38;6186520;23;20624;-55
2022/08/21 10:05:30;;;;;;;8.43;1.95;;;;;;;26.30;46.59;101679.94;6188439;23;20062;-57
2022/08/21 10:08:00;;;;;;;6.88;2.08;;;;;;;26.32;46.23;101682.56;6190540;23;20018;-53
2022/08/21 10:10:30;;;;;;;7.45;2.13;;;;;;;26.69;43.72;101673.94;6184638;22;20321;-58
2022/08/21 10:13:18;;;;;;;7.32;2.22;;;;;;;27.23;44.49;101682.38;6187666;23;20085;-56
2022/08/21 10:16:12;;;;;;;7.30;2.13;;;;;;;27.98;43.44;101669.22;6178028;23;20066;-54
2022/08/21 10:18:47;;;;;;;6.80;1.98;;;;;;;28.39;40.75;101678.00;6170288;23;20043;-54
2022/08/21 10:21:27;;;;;;;6.55;2.08;;;;;;;29.07;40.24;101678.25;6164013;23;20042;-54
2022/08/21 10:24:18;;;;;;;8.98;2.15;;;;;;;28.77;41.19;101678.84;6171780;23;20004;-56
2022/08/21 10:27:08;;;;;;;5.75;2.10;;;;;;;28.54;42.40;101681.78;6189483;23;20016;-54
2022/08/21 10:29:59;;;;;;;9.05;2.30;;;;;;;28.46;42.27;101675.91;6179465;23;20419;-56
2022/08/21 10:32:43;;;;;;;7.78;2.20;;;;;;;28.31;41.17;101671.25;6182883;23;20019;-54
2022/08/21 10:35:17;;;;;;;8.13;2.10;;;;;;;28.07;41.95;101670.56;6196765;22;21003;-54
2022/08/21 10:38:05;;;;;;;10.52;2.70;;;;;;;27.71;44.42;101667.78;6196974;23;20019;-56
2022/08/21 10:40:39;;;;;;;7.53;2.42;;;;;;;27.30;44.75;101674.94;6192956;23;20536;-57
2022/08/21 10:43:13;;;;;;;7.68;2.40;;;;;;;27.32;43.67;101675.75;6183739;23;20004;-56
2022/08/21 10:46:29;;;;;;;9.35;2.30;;;;;;;27.20;43.73;101671.78;6179441;23;20057;-54
2022/08/21 10:49:11;;;;;;;9.48;2.20;;;;;;;27.73;43.23;101673.94;6188571;23;20035;-55
2022/08/21 10:52:32;;;;;;;6.32;1.83;;;;;;;28.34;41.43;101666.63;6192720;23;20058;-55
2022/08/21 10:55:13;;;;;;;7.75;2.17;;;;;;;28.78;40.79;101674.34;6161765;22;20502;-53
2022/08/21 10:57:58;;;;;;;8.55;1.92;;;;;;;28.74;41.58;101670.06;6201009;22;20031;-53
2022/08/21 11:00:35;;;;;;;8.65;2.05;;;;;;;28.92;40.30;101666.47;6220653;22;20550;-53
2022/08/21 11:03:07;;;;;;;7.70;1.83;;;;;;;29.38;39.68;101676.63;6222437;22;20008;-55
2022/08/21 11:05:41;;;;;;;8.35;2.05;;;;;;;29.43;39.59;101673.69;6185325;22;20058;-59
2022/08/21 11:08:13;;;;;;;9.85;2.25;;;;;;;29.26;40.36;101681.72;6188636;22;20567;-56
2022/08/21 11:10:45;;;;;;;9.63;1.98;;;;;;;29.40;38.16;101681.91;6200744;22;20046;-54
2022/08/21 11:13:25;;;;;;;8.77;1.90;;;;;;;29.41;39.85;101681.81;6193657;22;20449;-53
2022/08/21 11:16:03;;;;;;;6.68;2.00;;;;;;;29.65;39.62;101681.47;6229814;22;20861;-54
2022/08/21 11:18:39;;;;;;;8.20;1.95;;;;;;;29.14;39.49;101690.41;6201258;22;20007;-54
2022/08/21 11:21:34;;;;;;;6.18;1.70;;;;;;;29.09;39.37;101679.06;6226578;22;20447;-52
2022/08/21 11:24:22;;;;;;;4.78;1.60;;;;;;;28.97;38.70;101675.19;6201428;22;20066;-53
2022/08/21 11:26:50;;;;;;;6.55;1.70;;;;;;;28.78;39.03;101680.59;6225253;22;20856;-54
2022/08/21 11:29:17;;;;;;;7.22;1.80;;;;;;;28.93;39.22;101684.31;6196197;22;20490;-54
2022/08/21 11:32:06;;;;;;;5.85;1.75;;;;;;;29.41;37.13;101689.00;6229429;22;20415;-54
2022/08/21 11:35:25;;;;;;;6.80;1.70;;;;;;;29.17;37.55;101687.56;6226395;22;20011;-53
2022/08/21 11:37:57;;;;;;;6.18;1.73;;;;;;;29.41;37.21;101692.56;6082055;23;20025;-54
2022/08/21 11:40:50;;;;;;;7.10;1.80;;;;;;;29.18;36.61;101686.63;6216905;22;20481;-53
2022/08/21 11:43:34;;;;;;;6.93;1.90;;;;;;;29.28;36.01;101685.19;6224063;22;20019;-52